createdAt,value
2022-11-17T00:00:51.921Z,84.95
2022-11-17T00:03:22.358Z,85.43
2022-11-17T00:05:52.954Z,85.42
2022-11-17T00:08:23.302Z,85.94
2022-11-17T00:10:53.684Z,85.66
2022-11-17T00:13:41.557Z,85.60
2022-11-17T00:16:14.794Z,86.22
2022-11-17T00:19:02.919Z,86.34
2022-11-17T00:21:33.880Z,87.00
2022-11-17T00:24:04.557Z,86.91
2022-11-17T00:26:57.185Z,86.91
2022-11-17T00:29:27.681Z,86.39
2022-11-17T00:32:16.501Z,86.28
2022-11-17T00:34:47.522Z,86.56
2022-11-17T00:37:18.555Z,86.36
2022-11-17T00:39:48.943Z,86.08
2022-11-17T00:42:19.365Z,85.96
2022-11-17T00:44:49.948Z,85.59
2022-11-17T00:47:20.416Z,85.50
2022-11-17T00:49:50.769Z,85.39
2022-11-17T00:52:21.177Z,85.40
2022-11-17T00:54:51.600Z,84.80
2022-11-17T00:57:21.939Z,85.07
2022-11-17T00:59:52.268Z,84.82
2022-11-17T01:02:22.620Z,84.47
2022-11-17T01:04:52.968Z,84.64
2022-11-17T01:07:23.889Z,84.54
2022-11-17T01:09:54.366Z,84.86
2022-11-17T01:12:24.612Z,84.58
2022-11-17T01:14:54.888Z,84.59
2022-11-17T01:17:25.281Z,84.04
2022-11-17T01:19:55.717Z,83.66
2022-11-17T01:22:26.180Z,83.88
2022-11-17T01:24:56.512Z,83.67
2022-11-17T01:27:26.956Z,83.95
2022-11-17T01:29:57.168Z,83.93
2022-11-17T01:32:27.412Z,83.72
2022-11-17T01:34:57.711Z,83.95
2022-11-17T01:37:29.024Z,84.38
2022-11-17T01:39:59.456Z,85.20
2022-11-17T01:42:29.825Z,85.02
2022-11-17T01:45:03.093Z,85.69
2022-11-17T01:47:38.768Z,85.71
2022-11-17T01:50:20.224Z,85.74
2022-11-17T01:52:49.977Z,86.10
2022-11-17T01:55:22.927Z,85.68
2022-11-17T01:57:57.640Z,85.53
2022-11-17T02:00:28.384Z,85.16
2022-11-17T02:02:59.228Z,85.46
2022-11-17T02:05:41.253Z,85.32
2022-11-17T02:08:12.834Z,84.48
2022-11-17T02:10:50.173Z,84.19
2022-11-17T02:13:22.876Z,84.46
2022-11-17T02:15:51.651Z,84.60
2022-11-17T02:18:22.344Z,84.12
2022-11-17T02:21:14.063Z,83.49
2022-11-17T02:24:13.501Z,83.77
2022-11-17T02:27:21.796Z,83.09
2022-11-17T02:29:59.377Z,82.70
2022-11-17T02:32:39.642Z,82.13
2022-11-17T02:35:20.686Z,82.03
2022-11-17T02:38:00.865Z,82.07
2022-11-17T02:40:34.850Z,82.04
2022-11-17T02:43:29.288Z,82.29
2022-11-17T02:46:05.195Z,81.66
2022-11-17T02:48:38.127Z,81.52
2022-11-17T02:51:12.683Z,81.25
2022-11-17T02:53:43.784Z,80.92
2022-11-17T02:56:14.096Z,80.75
2022-11-17T02:58:44.437Z,80.87
2022-11-17T03:01:31.777Z,80.57
2022-11-17T03:04:19.129Z,80.60
2022-11-17T03:06:57.723Z,80.47
2022-11-17T03:09:41.967Z,79.94
2022-11-17T03:12:17.296Z,79.73
2022-11-17T03:14:59.040Z,79.70
2022-11-17T03:17:41.104Z,80.10
2022-11-17T03:20:19.239Z,80.50
2022-11-17T03:22:56.641Z,80.40
2022-11-17T03:25:31.484Z,80.12
2022-11-17T03:28:05.481Z,79.51
2022-11-17T03:30:38.718Z,79.28
2022-11-17T03:33:15.199Z,78.49
2022-11-17T03:35:51.234Z,78.06
2022-11-17T03:38:24.825Z,77.44
2022-11-17T03:41:00.465Z,77.03
2022-11-17T03:43:33.868Z,77.01
2022-11-17T03:46:08.647Z,77.25
2022-11-17T03:48:45.903Z,77.37
2022-11-17T03:51:19.760Z,77.21
2022-11-17T03:53:50.622Z,77.70
2022-11-17T03:56:32.442Z,77.60
2022-11-17T03:59:07.128Z,78.22
2022-11-17T04:01:37.820Z,77.80
2022-11-17T04:04:08.525Z,78.19
2022-11-17T04:06:38.862Z,78.65
2022-11-17T04:09:09.164Z,79.39
2022-11-17T04:11:57.034Z,80.58
2022-11-17T04:14:45.027Z,82.06
2022-11-17T04:17:15.436Z,83.41
2022-11-17T04:19:45.741Z,84.08
2022-11-17T04:22:16.328Z,85.21
2022-11-17T04:24:46.706Z,86.03
2022-11-17T04:27:34.244Z,87.21
2022-11-17T04:30:04.979Z,88.40
2022-11-17T04:32:35.293Z,89.50
2022-11-17T04:35:06.073Z,89.98
2022-11-17T04:37:36.461Z,90.76
2022-11-17T04:40:08.857Z,91.33
2022-11-17T04:42:39.168Z,92.07
2022-11-17T04:45:11.300Z,92.23
2022-11-17T04:47:41.612Z,93.06
2022-11-17T04:50:12.748Z,93.56
2022-11-17T04:52:43.194Z,94.10
2022-11-17T04:55:13.810Z,95.24
2022-11-17T04:57:44.305Z,95.24
2022-11-17T05:00:17.299Z,96.00
2022-11-17T05:02:47.737Z,96.59
2022-11-17T05:05:18.346Z,96.25
2022-11-17T05:07:48.788Z,96.99
2022-11-17T05:10:39.657Z,97.12
2022-11-17T05:13:25.156Z,98.75
2022-11-17T05:16:15.376Z,98.78
2022-11-17T05:18:46.195Z,99.20
2022-11-17T05:21:16.996Z,99.29
2022-11-17T05:23:56.151Z,99.75
2022-11-17T05:26:28.615Z,99.79
2022-11-17T05:29:00.522Z,100.00
2022-11-17T05:31:31.999Z,100.00
2022-11-17T05:34:01.600Z,100.00
2022-11-17T05:36:32.211Z,100.00
2022-11-17T05:39:03.585Z,100.00
2022-11-17T05:41:34.669Z,99.98
2022-11-17T05:44:05.789Z,99.50
2022-11-17T05:46:36.322Z,98.91
2022-11-17T05:49:06.906Z,98.40
2022-11-17T05:51:38.266Z,97.52
2022-11-17T05:54:07.168Z,96.72
2022-11-17T05:56:43.197Z,96.36
2022-11-17T05:59:26.222Z,96.08
2022-11-17T06:02:02.343Z,95.50
2022-11-17T06:04:33.530Z,94.67
2022-11-17T06:07:04.096Z,93.96
2022-11-17T06:09:37.888Z,93.86
2022-11-17T06:12:08.761Z,93.49
2022-11-17T06:14:40.139Z,92.86
2022-11-17T06:17:22.067Z,92.71
2022-11-17T06:19:57.444Z,92.62
2022-11-17T06:22:28.658Z,92.76
2022-11-17T06:24:59.981Z,92.88
2022-11-17T06:27:29.948Z,93.09
2022-11-17T06:30:25.882Z,93.25
2022-11-17T06:32:56.713Z,93.17
2022-11-17T06:35:28.884Z,93.07
2022-11-17T06:37:59.188Z,93.09
2022-11-17T06:40:30.211Z,93.02
2022-11-17T06:43:10.441Z,93.05
2022-11-17T06:45:44.272Z,93.32
2022-11-17T06:48:16.789Z,93.32
2022-11-17T06:50:49.323Z,93.22
2022-11-17T06:53:20.048Z,93.21
2022-11-17T06:55:52.350Z,93.06
2022-11-17T06:58:22.763Z,92.95
2022-11-17T07:00:53.413Z,92.18
2022-11-17T07:03:24.185Z,91.40
2022-11-17T07:05:54.765Z,90.96
2022-11-17T07:08:25.638Z,90.48
2022-11-17T07:10:56.216Z,90.10
2022-11-17T07:13:27.589Z,89.20
2022-11-17T07:15:56.587Z,88.90
2022-11-17T07:18:28.298Z,89.09
2022-11-17T07:21:01.266Z,88.65
2022-11-17T07:23:32.223Z,87.63
2022-11-17T07:26:03.060Z,87.16
2022-11-17T07:28:34.912Z,85.43
2022-11-17T07:31:07.097Z,85.72
2022-11-17T07:33:38.453Z,85.71
2022-11-17T07:36:11.098Z,86.23
2022-11-17T07:38:42.564Z,86.31
2022-11-17T07:41:15.522Z,86.68
2022-11-17T07:43:45.871Z,86.74
2022-11-17T07:46:17.176Z,86.66
2022-11-17T07:48:46.202Z,86.33
2022-11-17T07:51:17.477Z,85.99
2022-11-17T07:53:48.091Z,85.24
2022-11-17T07:56:18.467Z,85.07
2022-11-17T07:58:49.142Z,85.12
2022-11-17T08:01:19.655Z,84.83
2022-11-17T08:03:50.228Z,85.04
2022-11-17T08:06:21.609Z,84.89
2022-11-17T08:08:50.883Z,85.25
2022-11-17T08:11:21.755Z,85.51
2022-11-17T08:13:52.641Z,85.60
2022-11-17T08:16:23.684Z,86.02
2022-11-17T08:18:54.388Z,85.95
2022-11-17T08:21:24.849Z,85.69
2022-11-17T08:23:56.355Z,86.04
2022-11-17T08:26:27.131Z,86.46
2022-11-17T08:28:59.127Z,86.55
2022-11-17T08:31:29.840Z,87.13
2022-11-17T08:34:00.395Z,88.20
2022-11-17T08:36:31.163Z,88.75
2022-11-17T08:39:01.998Z,89.15
2022-11-17T08:41:33.290Z,89.31
2022-11-17T08:44:02.772Z,89.84
2022-11-17T08:46:34.293Z,90.79
2022-11-17T08:49:04.892Z,91.87
2022-11-17T08:51:35.452Z,92.61
2022-11-17T08:54:06.128Z,93.64
2022-11-17T08:56:36.725Z,94.54
2022-11-17T08:59:07.241Z,95.23
2022-11-17T09:01:37.915Z,95.75
2022-11-17T09:04:09.312Z,96.27
2022-11-17T09:06:41.199Z,96.32
2022-11-17T09:09:11.625Z,95.77
2022-11-17T09:11:42.210Z,95.47
2022-11-17T09:14:12.740Z,95.86
2022-11-17T09:16:42.969Z,95.84
2022-11-17T09:19:13.633Z,95.78
2022-11-17T09:21:45.620Z,95.69
2022-11-17T09:24:16.558Z,95.97
2022-11-17T09:26:46.850Z,96.12
2022-11-17T09:29:17.084Z,96.73
2022-11-17T09:31:47.517Z,96.83
2022-11-17T09:34:18.082Z,96.87
2022-11-17T09:36:49.008Z,96.75
2022-11-17T09:39:19.278Z,96.43
2022-11-17T09:41:51.451Z,95.99
2022-11-17T09:44:29.497Z,95.98
2022-11-17T09:47:08.073Z,96.40
2022-11-17T09:49:55.091Z,96.86
2022-11-17T09:52:34.534Z,97.60
2022-11-17T09:55:18.662Z,97.93
2022-11-17T09:57:53.419Z,97.99
2022-11-17T10:00:24.879Z,98.29
2022-11-17T10:02:55.195Z,98.83
2022-11-17T10:05:30.332Z,99.13
2022-11-17T10:08:06.133Z,99.99
2022-11-17T10:10:40.650Z,100.00
2022-11-17T10:13:18.499Z,100.00
2022-11-17T10:15:52.394Z,100.00
2022-11-17T10:18:22.987Z,100.00
2022-11-17T10:20:53.652Z,100.00
2022-11-17T10:23:25.088Z,100.00
2022-11-17T10:26:00.590Z,100.00
2022-11-17T10:28:33.118Z,100.00
2022-11-17T10:31:05.571Z,99.90
2022-11-17T10:33:39.489Z,99.87
2022-11-17T10:36:19.029Z,99.68
2022-11-17T10:38:51.763Z,99.34
2022-11-17T10:41:24.728Z,99.40
2022-11-17T10:44:02.202Z,99.37
2022-11-17T10:46:43.219Z,99.15
2022-11-17T10:49:27.592Z,98.88
2022-11-17T10:52:16.081Z,98.58
2022-11-17T10:54:46.721Z,98.63
2022-11-17T10:57:21.164Z,98.03
2022-11-17T10:59:57.023Z,97.98
2022-11-17T11:02:34.812Z,97.59
2022-11-17T11:05:13.835Z,97.13
2022-11-17T11:07:44.964Z,97.24
2022-11-17T11:10:18.899Z,96.89
2022-11-17T11:12:53.519Z,97.04
2022-11-17T11:15:25.847Z,96.66
2022-11-17T11:17:56.419Z,96.85
2022-11-17T11:20:40.170Z,97.03
2022-11-17T11:23:20.638Z,97.11
2022-11-17T11:25:57.152Z,96.86
2022-11-17T11:28:45.609Z,96.34
2022-11-17T11:31:25.922Z,96.05
2022-11-17T11:34:07.412Z,95.50
2022-11-17T11:36:40.009Z,95.32
2022-11-17T11:39:22.567Z,95.38
2022-11-17T11:42:08.255Z,94.73
2022-11-17T11:44:52.221Z,94.72
2022-11-17T11:47:41.443Z,94.78
2022-11-17T11:50:19.185Z,95.17
2022-11-17T11:52:55.333Z,95.15
2022-11-17T11:55:30.730Z,95.48
2022-11-17T11:58:07.130Z,95.82
2022-11-17T12:00:38.112Z,95.61
2022-11-17T12:03:21.589Z,95.02
2022-11-17T12:06:25.835Z,95.11
2022-11-17T12:09:05.135Z,94.85
2022-11-17T12:11:57.012Z,94.82
2022-11-17T12:14:28.074Z,91.52
2022-11-17T12:17:06.315Z,89.31
2022-11-17T12:19:55.369Z,87.95
2022-11-17T12:22:50.073Z,87.81
2022-11-17T12:25:25.451Z,87.89
2022-11-17T12:27:56.334Z,88.90
2022-11-17T12:30:57.459Z,90.82
2022-11-17T12:34:07.898Z,91.82
2022-11-17T12:36:39.022Z,91.96
2022-11-17T12:39:47.597Z,93.82
2022-11-17T12:42:18.009Z,95.22
2022-11-17T12:45:09.171Z,96.38
2022-11-17T12:47:42.034Z,96.76
2022-11-17T12:50:42.006Z,97.10
2022-11-17T12:53:26.215Z,96.80
2022-11-17T12:56:30.416Z,96.95
2022-11-17T12:59:18.772Z,97.23
2022-11-17T13:02:00.002Z,96.60
2022-11-17T13:04:46.371Z,96.40
2022-11-17T13:07:22.725Z,95.66
2022-11-17T13:09:57.045Z,94.71
2022-11-17T13:12:29.035Z,92.46
2022-11-17T13:15:02.654Z,91.53
2022-11-17T13:17:34.623Z,92.12
2022-11-17T13:20:16.899Z,91.98
2022-11-17T13:23:01.401Z,91.95
2022-11-17T13:25:32.178Z,91.54
2022-11-17T13:28:05.101Z,91.77
2022-11-17T13:30:36.737Z,91.34
2022-11-17T13:33:20.841Z,90.57
2022-11-17T13:36:05.141Z,91.58
2022-11-17T13:38:35.928Z,92.27
2022-11-17T13:41:06.749Z,92.78
2022-11-17T13:43:40.706Z,93.75
2022-11-17T13:46:11.269Z,95.22
2022-11-17T13:48:43.317Z,96.06
2022-11-17T13:51:27.717Z,96.72
2022-11-17T13:54:01.462Z,98.36
2022-11-17T13:56:38.350Z,98.70
2022-11-17T13:59:23.334Z,99.45
2022-11-17T14:02:26.995Z,99.04
2022-11-17T14:05:23.204Z,99.16
2022-11-17T14:07:56.848Z,100.00
2022-11-17T14:10:38.215Z,100.00
2022-11-17T14:13:29.799Z,100.00
2022-11-17T14:16:00.588Z,100.00
2022-11-17T14:18:36.652Z,100.00
2022-11-17T14:21:16.698Z,100.00
2022-11-17T14:23:47.221Z,100.00
2022-11-17T14:26:21.376Z,100.00
2022-11-17T14:28:53.340Z,100.00
2022-11-17T14:31:24.466Z,100.00
2022-11-17T14:33:54.998Z,100.00
2022-11-17T14:36:25.692Z,100.00
2022-11-17T14:38:56.393Z,100.00
2022-11-17T14:41:26.783Z,100.00
2022-11-17T14:43:57.366Z,100.00
2022-11-17T14:46:28.599Z,100.00
2022-11-17T14:48:59.080Z,100.00
2022-11-17T14:51:29.899Z,100.00
2022-11-17T14:54:00.487Z,100.00
2022-11-17T14:56:31.396Z,100.00
2022-11-17T14:59:07.967Z,100.00
2022-11-17T15:01:39.339Z,100.00
2022-11-17T15:04:34.608Z,100.00
2022-11-17T15:06:58.735Z,100.00
2022-11-17T15:09:29.086Z,100.00
2022-11-17T15:11:59.825Z,100.00
2022-11-17T15:14:30.430Z,100.00
2022-11-17T15:17:00.712Z,100.00
2022-11-17T15:19:31.136Z,100.00
2022-11-17T15:22:01.635Z,100.00
2022-11-17T15:24:32.093Z,100.00
2022-11-17T15:27:02.533Z,100.00
2022-11-17T15:29:32.916Z,100.00
2022-11-17T15:32:03.575Z,100.00
2022-11-17T15:34:34.217Z,100.00
2022-11-17T15:37:05.308Z,100.00
2022-11-17T15:39:35.897Z,100.00
2022-11-17T15:42:06.609Z,100.00
2022-11-17T15:44:37.428Z,100.00
2022-11-17T15:47:07.970Z,100.00
2022-11-17T15:49:38.467Z,100.00
2022-11-17T15:52:09.128Z,100.00
2022-11-17T15:54:39.815Z,100.00
2022-11-17T15:57:10.113Z,100.00
2022-11-17T15:59:40.600Z,100.00
2022-11-17T16:02:13.900Z,100.00
2022-11-17T16:04:44.533Z,100.00
2022-11-17T16:07:15.124Z,100.00
2022-11-17T16:09:49.147Z,100.00
2022-11-17T16:12:20.792Z,100.00
2022-11-17T16:14:51.373Z,100.00
2022-11-17T16:17:21.666Z,100.00
2022-11-17T16:19:52.115Z,100.00
2022-11-17T16:22:22.516Z,100.00
2022-11-17T16:24:53.172Z,100.00
2022-11-17T16:27:23.591Z,100.00
2022-11-17T16:29:54.076Z,100.00
2022-11-17T16:32:24.601Z,100.00
2022-11-17T16:34:55.082Z,100.00
2022-11-17T16:37:25.517Z,100.00
2022-11-17T16:39:56.308Z,100.00
2022-11-17T16:42:26.871Z,100.00
2022-11-17T16:44:57.351Z,100.00
2022-11-17T16:47:28.574Z,100.00
2022-11-17T16:49:59.109Z,100.00
2022-11-17T16:52:29.695Z,100.00
2022-11-17T16:55:04.565Z,100.00
2022-11-17T16:57:35.324Z,100.00
2022-11-17T17:00:08.575Z,100.00
2022-11-17T17:02:39.068Z,100.00
2022-11-17T17:05:10.009Z,100.00
2022-11-17T17:07:40.624Z,100.00
2022-11-17T17:10:11.943Z,100.00
2022-11-17T17:12:42.512Z,100.00
2022-11-17T17:15:13.499Z,100.00
2022-11-17T17:17:43.860Z,100.00
2022-11-17T17:20:14.858Z,100.00
2022-11-17T17:22:45.331Z,100.00
2022-11-17T17:25:15.992Z,100.00
2022-11-17T17:27:46.256Z,100.00
2022-11-17T17:30:18.043Z,100.00
2022-11-17T17:32:48.551Z,100.00
2022-11-17T17:35:19.190Z,100.00
2022-11-17T17:37:49.862Z,100.00
2022-11-17T17:40:21.124Z,100.00
2022-11-17T17:42:51.775Z,100.00
2022-11-17T17:45:22.158Z,100.00
2022-11-17T17:47:52.523Z,100.00
2022-11-17T17:50:23.193Z,100.00
2022-11-17T17:52:53.574Z,100.00
2022-11-17T17:55:24.100Z,100.00
2022-11-17T17:57:54.721Z,100.00
2022-11-17T18:00:25.178Z,100.00
2022-11-17T18:02:55.549Z,100.00
2022-11-17T18:05:27.144Z,100.00
2022-11-17T18:07:57.765Z,100.00
2022-11-17T18:10:28.167Z,100.00
2022-11-17T18:12:58.548Z,100.00
2022-11-17T18:15:29.145Z,100.00
2022-11-17T18:17:59.798Z,100.00
2022-11-17T18:20:30.300Z,100.00
2022-11-17T18:23:01.557Z,100.00
2022-11-17T18:25:34.624Z,100.00
2022-11-17T18:28:05.029Z,100.00
2022-11-17T18:30:35.405Z,100.00
2022-11-17T18:33:05.741Z,100.00
2022-11-17T18:35:37.428Z,100.00
2022-11-17T18:38:07.915Z,100.00
2022-11-17T18:40:38.382Z,100.00
2022-11-17T18:43:08.714Z,100.00
2022-11-17T18:45:39.974Z,100.00
2022-11-17T18:48:09.192Z,100.00
2022-11-17T18:50:57.926Z,100.00
2022-11-17T18:53:31.264Z,100.00
2022-11-17T18:56:04.339Z,100.00
2022-11-17T18:58:35.475Z,100.00
2022-11-17T19:01:10.678Z,100.00
2022-11-17T19:03:42.274Z,100.00
2022-11-17T19:06:13.827Z,100.00
2022-11-17T19:08:44.821Z,100.00
2022-11-17T19:11:15.599Z,100.00
2022-11-17T19:13:46.851Z,100.00
2022-11-17T19:16:18.924Z,100.00
2022-11-17T19:18:51.726Z,100.00
2022-11-17T19:21:25.569Z,100.00
2022-11-17T19:23:59.012Z,100.00
2022-11-17T19:26:31.311Z,100.00
2022-11-17T19:29:03.463Z,100.00
2022-11-17T19:31:41.589Z,100.00
2022-11-17T19:34:12.346Z,100.00
2022-11-17T19:36:44.505Z,100.00
2022-11-17T19:39:16.979Z,100.00
2022-11-17T19:41:47.756Z,100.00
2022-11-17T19:44:19.204Z,100.00
2022-11-17T19:46:48.069Z,100.00
2022-11-17T19:49:18.968Z,100.00
2022-11-17T19:51:49.718Z,100.00
2022-11-17T19:54:20.795Z,100.00
2022-11-17T19:56:51.128Z,100.00
2022-11-17T19:59:21.800Z,100.00
2022-11-17T20:01:52.911Z,100.00
2022-11-17T20:04:23.551Z,100.00
2022-11-17T20:06:54.906Z,100.00
2022-11-17T20:09:25.515Z,100.00
2022-11-17T20:11:55.886Z,100.00
2022-11-17T20:14:26.345Z,100.00
2022-11-17T20:16:57.109Z,100.00
2022-11-17T20:19:27.565Z,100.00
2022-11-17T20:21:57.946Z,100.00
2022-11-17T20:24:28.422Z,100.00
2022-11-17T20:26:58.984Z,100.00
2022-11-17T20:29:29.231Z,100.00
2022-11-17T20:31:59.828Z,100.00
2022-11-17T20:34:30.154Z,100.00
2022-11-17T20:37:00.701Z,100.00
2022-11-17T20:39:31.158Z,100.00
2022-11-17T20:42:01.663Z,100.00
2022-11-17T20:44:32.591Z,100.00
2022-11-17T20:47:02.995Z,100.00
2022-11-17T20:49:33.277Z,100.00
2022-11-17T20:52:04.623Z,100.00
2022-11-17T20:54:37.503Z,100.00
2022-11-17T20:57:08.625Z,100.00
2022-11-17T20:59:39.039Z,100.00
2022-11-17T21:02:09.761Z,100.00
2022-11-17T21:04:40.170Z,100.00
2022-11-17T21:07:10.668Z,100.00
2022-11-17T21:09:41.253Z,100.00
2022-11-17T21:12:11.792Z,100.00
2022-11-17T21:14:42.267Z,100.00
2022-11-17T21:17:32.847Z,100.00
2022-11-17T21:20:03.681Z,100.00
2022-11-17T21:22:34.224Z,100.00
2022-11-17T21:25:05.018Z,100.00
2022-11-17T21:27:35.545Z,100.00
2022-11-17T21:30:07.063Z,100.00
2022-11-17T21:32:37.521Z,100.00
2022-11-17T21:35:08.488Z,100.00
2022-11-17T21:37:39.004Z,100.00
2022-11-17T21:40:11.173Z,100.00
2022-11-17T21:42:41.579Z,100.00
2022-11-17T21:45:13.709Z,100.00
2022-11-17T21:47:44.252Z,100.00
2022-11-17T21:50:14.808Z,100.00
2022-11-17T21:52:45.028Z,100.00
2022-11-17T21:55:15.399Z,100.00
2022-11-17T21:57:45.996Z,100.00
2022-11-17T22:00:17.955Z,100.00
2022-11-17T22:02:48.385Z,100.00
2022-11-17T22:05:18.931Z,100.00
2022-11-17T22:07:49.414Z,100.00
2022-11-17T22:10:20.105Z,100.00
2022-11-17T22:12:50.639Z,100.00
2022-11-17T22:15:21.323Z,100.00
2022-11-17T22:17:51.749Z,100.00
2022-11-17T22:20:22.127Z,100.00
2022-11-17T22:22:54.118Z,100.00
2022-11-17T22:25:44.143Z,100.00
2022-11-17T22:28:15.614Z,100.00
2022-11-17T22:30:45.895Z,100.00
2022-11-17T22:33:16.335Z,100.00
2022-11-17T22:35:47.407Z,100.00
2022-11-17T22:38:18.236Z,100.00
2022-11-17T22:40:48.565Z,100.00
2022-11-17T22:43:18.992Z,100.00
2022-11-17T22:45:49.339Z,100.00
2022-11-17T22:48:19.818Z,100.00
2022-11-17T22:50:50.415Z,100.00
2022-11-17T22:53:20.785Z,100.00
2022-11-17T22:55:51.115Z,100.00
2022-11-17T22:58:21.644Z,100.00
2022-11-17T23:00:52.961Z,100.00
2022-11-17T23:03:23.377Z,100.00
2022-11-17T23:05:53.731Z,100.00
2022-11-17T23:08:24.291Z,100.00
2022-11-17T23:11:29.709Z,100.00
2022-11-17T23:13:50.519Z,100.00
2022-11-17T23:16:20.910Z,100.00
2022-11-17T23:18:54.958Z,100.00
2022-11-17T23:21:25.799Z,100.00
2022-11-17T23:23:56.311Z,100.00
2022-11-17T23:26:26.735Z,100.00
2022-11-17T23:28:57.977Z,100.00
2022-11-17T23:31:28.872Z,100.00
2022-11-17T23:33:59.239Z,100.00
2022-11-17T23:36:30.205Z,100.00
2022-11-17T23:39:00.559Z,100.00
2022-11-17T23:41:30.977Z,100.00
2022-11-17T23:44:01.324Z,100.00
2022-11-17T23:46:32.007Z,100.00
2022-11-17T23:49:02.384Z,100.00
2022-11-17T23:51:32.779Z,100.00
2022-11-17T23:54:03.919Z,100.00
2022-11-17T23:56:36.197Z,100.00
2022-11-17T23:59:08.279Z,100.00
